N15SM LHBP-LOWW
Flight info
| Callsign | N15SM |
|---|---|
| Flight time | N/A |
| Altitude | 9000 |
| Route | LHBP/31L N0395F180 GILE2L GILEP DCT NATEX NATE2W LOWW/29 |
| Aircraft | DA40/L-DA40/U |
Departure
| Time | N/A |
|---|---|
| Airport | Budapest Liszt Ferenc International Airport (LHBP) |
Arrival
| Time | 2026-04-25 22:30 |
|---|---|
| Airport | Vienna International Airport (LOWW) |
| Time | Latitude | Longitude | Altitude | Speed | Heading |
|---|---|---|---|---|---|
| 2026-04-25 21:59 | 47.74328 | 17.44813 | 8979 ft | 136 kts | 268° |
| 2026-04-25 21:59 | 47.74288 | 17.44215 | 8982 ft | 137 kts | 268° |
| 2026-04-25 21:59 | 47.74191 | 17.42811 | 8977 ft | 136 kts | 268° |
| 2026-04-25 22:00 | 47.73994 | 17.40010 | 8985 ft | 136 kts | 267° |
| 2026-04-25 22:00 | 47.73896 | 17.38641 | 8979 ft | 131 kts | 268° |
| 2026-04-25 22:00 | 47.73807 | 17.37399 | 8973 ft | 110 kts | 268° |
| 2026-04-25 22:00 | 47.73732 | 17.36321 | 8964 ft | 101 kts | 268° |
| 2026-04-25 22:01 | 47.73656 | 17.35237 | 8976 ft | 111 kts | 268° |
| 2026-04-25 22:01 | 47.73572 | 17.34042 | 8983 ft | 120 kts | 268° |
| 2026-04-25 22:01 | 47.73485 | 17.32805 | 8990 ft | 123 kts | 268° |
| 2026-04-25 22:01 | 47.73424 | 17.31956 | 8989 ft | 121 kts | 268° |
| 2026-04-25 22:02 | 47.73307 | 17.30300 | 8989 ft | 119 kts | 268° |
| 2026-04-25 22:02 | 47.73218 | 17.29107 | 8973 ft | 113 kts | 268° |
| 2026-04-25 22:02 | 47.73137 | 17.27973 | 8975 ft | 109 kts | 268° |
| 2026-04-25 22:02 | 47.73057 | 17.26859 | 8976 ft | 107 kts | 268° |
| 2026-04-25 22:03 | 47.72980 | 17.25780 | 8979 ft | 106 kts | 268° |
| 2026-04-25 22:03 | 47.72901 | 17.24685 | 8984 ft | 110 kts | 268° |
| 2026-04-25 22:03 | 47.72818 | 17.23508 | 8987 ft | 117 kts | 268° |
| 2026-04-25 22:03 | 47.72729 | 17.22303 | 8997 ft | 119 kts | 268° |
| 2026-04-25 22:04 | 47.72641 | 17.21067 | 8995 ft | 120 kts | 268° |
| 2026-04-25 22:04 | 47.72553 | 17.19823 | 8998 ft | 121 kts | 268° |
| 2026-04-25 22:04 | 47.72467 | 17.18576 | 8989 ft | 122 kts | 267° |
| 2026-04-25 22:04 | 47.72302 | 17.17333 | 8992 ft | 123 kts | 265° |
| 2026-04-25 22:05 | 47.72238 | 17.16059 | 8992 ft | 124 kts | 269° |
| 2026-04-25 22:05 | 47.72166 | 17.14772 | 8989 ft | 126 kts | 269° |
| 2026-04-25 22:05 | 47.72082 | 17.13477 | 8992 ft | 127 kts | 268° |
| 2026-04-25 22:05 | 47.71989 | 17.12162 | 8987 ft | 128 kts | 268° |
| 2026-04-25 22:06 | 47.71894 | 17.10832 | 8997 ft | 132 kts | 268° |
| 2026-04-25 22:06 | 47.71796 | 17.09467 | 9003 ft | 134 kts | 268° |
| 2026-04-25 22:06 | 47.71694 | 17.08088 | 8998 ft | 136 kts | 268° |
| 2026-04-25 22:06 | 47.71592 | 17.06665 | 8999 ft | 140 kts | 267° |
| 2026-04-25 22:07 | 47.71630 | 17.05243 | 8989 ft | 136 kts | 284° |
| 2026-04-25 22:07 | 47.71830 | 17.04374 | 8993 ft | 133 kts | 295° |
| 2026-04-25 22:07 | 47.72404 | 17.02778 | 8988 ft | 129 kts | 297° |
| 2026-04-25 22:07 | 47.72819 | 17.01602 | 8985 ft | 127 kts | 297° |
| 2026-04-25 22:08 | 47.73229 | 17.00451 | 8982 ft | 125 kts | 297° |
| 2026-04-25 22:08 | 47.73636 | 16.99308 | 8979 ft | 125 kts | 297° |
| 2026-04-25 22:08 | 47.74042 | 16.98166 | 8986 ft | 125 kts | 298° |
| 2026-04-25 22:08 | 47.74446 | 16.97028 | 8984 ft | 124 kts | 298° |
| 2026-04-25 22:09 | 47.74848 | 16.95895 | 8979 ft | 124 kts | 298° |
| 2026-04-25 22:09 | 47.75248 | 16.94760 | 8984 ft | 124 kts | 298° |
| 2026-04-25 22:09 | 47.75664 | 16.93598 | 8986 ft | 130 kts | 298° |
| 2026-04-25 22:09 | 47.76087 | 16.92416 | 8997 ft | 132 kts | 298° |
| 2026-04-25 22:10 | 47.76522 | 16.91190 | 9003 ft | 134 kts | 298° |
| 2026-04-25 22:10 | 47.76962 | 16.89940 | 8835 ft | 138 kts | 298° |
| 2026-04-25 22:10 | 47.77388 | 16.88742 | 8567 ft | 126 kts | 298° |
| 2026-04-25 22:10 | 47.77784 | 16.87624 | 8301 ft | 119 kts | 298° |
| 2026-04-25 22:11 | 47.78162 | 16.86556 | 8033 ft | 115 kts | 298° |
| 2026-04-25 22:11 | 47.78528 | 16.85521 | 7775 ft | 112 kts | 298° |
| 2026-04-25 22:11 | 47.78890 | 16.84503 | 7522 ft | 114 kts | 298° |
| 2026-04-25 22:11 | 47.79284 | 16.83379 | 7290 ft | 128 kts | 298° |
| 2026-04-25 22:12 | 47.79700 | 16.82211 | 7056 ft | 128 kts | 298° |
| 2026-04-25 22:12 | 47.80117 | 16.81037 | 6820 ft | 129 kts | 298° |
| 2026-04-25 22:12 | 47.80570 | 16.79889 | 6584 ft | 129 kts | 308° |
| 2026-04-25 22:12 | 47.81004 | 16.79275 | 6422 ft | 130 kts | 321° |
| 2026-04-25 22:13 | 47.82125 | 16.78585 | 6089 ft | 134 kts | 346° |
| 2026-04-25 22:13 | 47.83038 | 16.78650 | 5999 ft | 128 kts | 6° |
| 2026-04-25 22:13 | 47.83834 | 16.79136 | 5987 ft | 123 kts | 19° |
| 2026-04-25 22:13 | 47.84605 | 16.79705 | 5986 ft | 125 kts | 17° |
| 2026-04-25 22:14 | 47.85396 | 16.80285 | 5992 ft | 128 kts | 18° |
| 2026-04-25 22:14 | 47.86219 | 16.80549 | 5986 ft | 119 kts | 341° |
| 2026-04-25 22:14 | 47.86991 | 16.80131 | 5992 ft | 118 kts | 335° |
| 2026-04-25 22:14 | 47.87760 | 16.79716 | 5993 ft | 118 kts | 335° |
| 2026-04-25 22:15 | 47.88529 | 16.79305 | 5997 ft | 118 kts | 335° |
| 2026-04-25 22:15 | 47.89337 | 16.79099 | 5996 ft | 126 kts | 5° |
| 2026-04-25 22:15 | 47.90001 | 16.80028 | 5984 ft | 145 kts | 63° |
| 2026-04-25 22:16 | 47.89433 | 16.82867 | 5983 ft | 146 kts | 115° |
| 2026-04-25 22:16 | 47.88964 | 16.84282 | 5749 ft | 158 kts | 115° |
| 2026-04-25 22:16 | 47.88460 | 16.85781 | 5508 ft | 163 kts | 115° |
| 2026-04-25 22:16 | 47.87967 | 16.87275 | 5269 ft | 159 kts | 111° |
| 2026-04-25 22:17 | 47.87536 | 16.88776 | 5019 ft | 156 kts | 110° |
| 2026-04-25 22:17 | 47.87108 | 16.90253 | 4701 ft | 154 kts | 110° |
| 2026-04-25 22:17 | 47.86687 | 16.91697 | 4312 ft | 150 kts | 110° |
| 2026-04-25 22:17 | 47.86275 | 16.93091 | 3937 ft | 148 kts | 110° |
| 2026-04-25 22:18 | 47.85958 | 16.94522 | 3554 ft | 142 kts | 84° |
| 2026-04-25 22:18 | 47.86322 | 16.95739 | 3162 ft | 124 kts | 31° |
| 2026-04-25 22:18 | 47.87023 | 16.96445 | 2994 ft | 124 kts | 25° |
| 2026-04-25 22:18 | 47.87775 | 16.97182 | 2996 ft | 136 kts | 25° |
| 2026-04-25 22:19 | 47.88597 | 16.97956 | 2993 ft | 143 kts | 25° |
| 2026-04-25 22:19 | 47.89453 | 16.98695 | 2982 ft | 138 kts | 11° |
| 2026-04-25 22:19 | 47.90361 | 16.98643 | 2990 ft | 130 kts | 344° |
| 2026-04-25 22:19 | 47.91260 | 16.98383 | 2983 ft | 132 kts | 345° |
| 2026-04-25 22:20 | 47.92153 | 16.98140 | 2986 ft | 130 kts | 345° |
| 2026-04-25 22:20 | 47.93039 | 16.97882 | 2978 ft | 128 kts | 345° |
| 2026-04-25 22:20 | 47.93904 | 16.97621 | 2980 ft | 127 kts | 345° |
| 2026-04-25 22:20 | 47.94749 | 16.97292 | 2979 ft | 127 kts | 332° |
| 2026-04-25 22:21 | 47.95489 | 16.96578 | 2973 ft | 127 kts | 324° |
| 2026-04-25 22:21 | 47.96223 | 16.95848 | 2983 ft | 128 kts | 325° |
| 2026-04-25 22:21 | 47.96971 | 16.95105 | 2986 ft | 130 kts | 325° |
| 2026-04-25 22:21 | 47.97730 | 16.94349 | 2971 ft | 130 kts | 326° |
| 2026-04-25 22:22 | 47.98450 | 16.93579 | 2981 ft | 126 kts | 316° |
| 2026-04-25 22:22 | 47.99081 | 16.92646 | 2983 ft | 129 kts | 316° |
| 2026-04-25 22:22 | 47.99671 | 16.91635 | 2987 ft | 129 kts | 302° |
| 2026-04-25 22:22 | 48.00105 | 16.90477 | 2984 ft | 127 kts | 302° |
| 2026-04-25 22:23 | 48.00510 | 16.89329 | 2997 ft | 125 kts | 300° |
| 2026-04-25 22:23 | 48.00908 | 16.88161 | 2999 ft | 127 kts | 300° |
| 2026-04-25 22:23 | 48.01307 | 16.86974 | 3003 ft | 130 kts | 299° |
| 2026-04-25 22:23 | 48.01702 | 16.85761 | 3008 ft | 130 kts | 299° |
| 2026-04-25 22:24 | 48.02100 | 16.84522 | 2981 ft | 131 kts | 298° |
| 2026-04-25 22:24 | 48.02506 | 16.83322 | 3000 ft | 132 kts | 300° |
| 2026-04-25 22:24 | 48.02905 | 16.82083 | 2989 ft | 131 kts | 298° |
| 2026-04-25 22:24 | 48.03301 | 16.80857 | 2985 ft | 131 kts | 302° |
| 2026-04-25 22:25 | 48.03710 | 16.79632 | 3005 ft | 131 kts | 300° |
| 2026-04-25 22:25 | 48.04107 | 16.78393 | 2996 ft | 133 kts | 298° |
| 2026-04-25 22:25 | 48.04512 | 16.77147 | 2983 ft | 133 kts | 300° |
| 2026-04-25 22:25 | 48.04917 | 16.75922 | 2997 ft | 130 kts | 297° |
| 2026-04-25 22:26 | 48.05307 | 16.74705 | 2986 ft | 131 kts | 300° |
| 2026-04-25 22:26 | 48.05723 | 16.73466 | 2903 ft | 136 kts | 300° |
| 2026-04-25 22:26 | 48.06121 | 16.72210 | 2727 ft | 134 kts | 300° |
| 2026-04-25 22:26 | 48.06528 | 16.71002 | 2559 ft | 132 kts | 301° |
| 2026-04-25 22:27 | 48.06946 | 16.69712 | 2368 ft | 141 kts | 298° |
| 2026-04-25 22:27 | 48.07364 | 16.68415 | 2180 ft | 137 kts | 299° |
| 2026-04-25 22:27 | 48.07767 | 16.67165 | 1997 ft | 131 kts | 299° |
| 2026-04-25 22:27 | 48.08178 | 16.65931 | 1819 ft | 134 kts | 298° |
| 2026-04-25 22:28 | 48.08591 | 16.64663 | 1643 ft | 136 kts | 298° |
| 2026-04-25 22:28 | 48.09006 | 16.63377 | 1461 ft | 140 kts | 297° |
| 2026-04-25 22:28 | 48.09433 | 16.62067 | 1280 ft | 138 kts | 296° |
| 2026-04-25 22:28 | 48.09810 | 16.60908 | 1115 ft | 114 kts | 296° |
| 2026-04-25 22:29 | 48.10143 | 16.59882 | 978 ft | 108 kts | 294° |
| 2026-04-25 22:29 | 48.10468 | 16.58886 | 826 ft | 103 kts | 294° |
| 2026-04-25 22:29 | 48.10777 | 16.57958 | 682 ft | 94 kts | 294° |
| 2026-04-25 22:30 | 48.11249 | 16.56510 | 599 ft | 58 kts | 293° |
| 2026-04-25 22:30 | 48.11432 | 16.55939 | 596 ft | 65 kts | 294° |
| 2026-04-25 22:30 | 48.11614 | 16.55439 | 593 ft | 47 kts | 304° |
| 2026-04-25 22:30 | 48.11743 | 16.55221 | 587 ft | 30 kts | 316° |
| 2026-04-25 22:31 | 48.11819 | 16.55144 | 587 ft | 0 kts | 348° |
| 2026-04-25 22:32 | 48.11820 | 16.55143 | 587 ft | 3 kts | 348° |
| 2026-04-25 22:32 | 48.11892 | 16.55141 | 588 ft | 6 kts | 333° |
| 2026-04-25 22:32 | 48.11931 | 16.55056 | 588 ft | 11 kts | 295° |
| 2026-04-25 22:33 | 48.11952 | 16.54986 | 588 ft | 12 kts | 290° |
| 2026-04-25 22:33 | 48.11991 | 16.54873 | 588 ft | 13 kts | 296° |
| 2026-04-25 22:33 | 48.12036 | 16.54736 | 586 ft | 16 kts | 295° |
| 2026-04-25 22:33 | 48.12078 | 16.54607 | 586 ft | 12 kts | 296° |
| 2026-04-25 22:34 | 48.12124 | 16.54467 | 583 ft | 22 kts | 296° |
| 2026-04-25 22:34 | 48.12195 | 16.54243 | 580 ft | 25 kts | 297° |
| 2026-04-25 22:34 | 48.12263 | 16.54035 | 578 ft | 22 kts | 297° |
| 2026-04-25 22:34 | 48.12335 | 16.53816 | 576 ft | 24 kts | 296° |
| 2026-04-25 22:35 | 48.12386 | 16.53660 | 578 ft | 8 kts | 298° |
| 2026-04-25 22:35 | 48.12426 | 16.53625 | 578 ft | 8 kts | 10° |
| 2026-04-25 22:35 | 48.12475 | 16.53631 | 578 ft | 7 kts | 339° |
| 2026-04-25 22:35 | 48.12529 | 16.53638 | 579 ft | 9 kts | 27° |
| 2026-04-25 22:36 | 48.12571 | 16.53663 | 578 ft | 1 kts | 354° |
| 2026-04-25 22:36 | 48.12589 | 16.53631 | 578 ft | 5 kts | 293° |
| 2026-04-25 22:36 | 48.12600 | 16.53597 | 578 ft | 0 kts | 295° |
| 2026-04-25 22:36 | 48.12600 | 16.53598 | 578 ft | 0 kts | 295° |
| 2026-04-25 22:39 | 48.12601 | 16.53593 | 578 ft | 0 kts | 294° |